Time;durP1;ratioP1;P1;durP2;ratioP2;P2;SDS_P1;SDS_P2;PMS_P1;PMS_P2;Temp;Humidity;BMP_temperature;BMP_pressure;BME280_temperature;BME280_humidity;BME280_pressure;Samples;Min_cycle;Max_cycle;Signal;HPM_P1;HPM_P2
2023/08/14 00:01:23;;;;;;;5.00;4.10;;;;;;;18.06;82.12;100741.03;102885;275;98140;-54
2023/08/14 00:04:02;;;;;;;;;;;;;;;18.06;82.15;100740.20;102827;275;120267;-53
2023/08/14 00:06:43;;;;;;;5.10;4.20;;;;;;;18.03;82.37;100743.42;102887;275;105901;-57
2023/08/14 00:09:23;;;;;;;5.90;4.40;;;;;;;18.03;82.36;100735.89;102998;275;114208;-57
2023/08/14 00:12:01;;;;;;;5.10;4.60;;;;;;;18.00;82.41;100738.38;102948;275;97430;-58
2023/08/14 00:14:42;;;;;;;6.60;4.80;;;;;;;17.98;82.16;100730.23;102986;275;97860;-57
2023/08/14 00:17:16;;;;;;;4.60;4.20;;;;;;;17.94;82.46;100736.67;102881;275;120640;-53
2023/08/14 00:19:54;;;;;;;5.30;4.30;;;;;;;17.94;82.41;100736.60;102808;275;105602;-52
2023/08/14 00:22:30;;;;;;;5.80;4.70;;;;;;;17.91;82.38;100736.30;102855;275;115054;-53
2023/08/14 00:25:09;;;;;;;8.50;4.60;;;;;;;17.88;82.36;100736.92;102812;275;95865;-53
2023/08/14 00:27:51;;;;;;;5.20;4.20;;;;;;;17.86;82.30;100734.80;102841;275;97603;-55
2023/08/14 00:30:29;;;;;;;5.10;4.20;;;;;;;17.84;82.55;100733.10;102782;268;121354;-56
2023/08/14 00:33:04;;;;;;;6.40;4.60;;;;;;;17.83;82.45;100733.88;102846;275;104551;-57
2023/08/14 00:35:44;;;;;;;7.60;4.20;;;;;;;17.80;82.66;100739.75;102841;275;113615;-56
2023/08/14 00:38:26;;;;;;;;;;;;;;;17.76;82.63;100743.51;102812;275;94616;-55
2023/08/14 00:41:06;;;;;;;5.50;4.40;;;;;;;17.74;82.72;100742.77;102811;275;97205;-55
2023/08/14 00:43:43;;;;;;;4.80;4.30;;;;;;;17.73;82.52;100745.81;102834;275;120924;-56
2023/08/14 00:46:25;;;;;;;6.40;4.70;;;;;;;17.68;82.67;100748.13;102853;275;104781;-57
2023/08/14 00:49:10;;;;;;;5.70;4.50;;;;;;;17.65;82.49;100751.27;102957;275;114640;-58
2023/08/14 00:51:47;;;;;;;6.20;4.40;;;;;;;17.63;82.60;100756.73;102972;275;96320;-54
2023/08/14 00:54:28;;;;;;;6.00;4.70;;;;;;;17.62;82.57;100754.88;102830;275;97058;-55
2023/08/14 00:57:03;;;;;;;5.30;4.70;;;;;;;17.58;82.73;100753.45;102851;275;121374;-54
2023/08/14 00:59:43;;;;;;;6.40;4.30;;;;;;;17.55;82.77;100757.39;102830;275;105023;-53
2023/08/14 01:02:23;;;;;;;6.00;4.30;;;;;;;17.55;82.91;100761.90;102987;275;113782;-57
2023/08/14 01:05:00;;;;;;;7.00;4.40;;;;;;;17.56;83.05;100765.20;102964;275;95519;-57
2023/08/14 01:07:38;;;;;;;5.60;4.20;;;;;;;17.57;83.09;100767.96;102927;275;97672;-55
2023/08/14 01:10:16;;;;;;;6.10;4.30;;;;;;;17.58;83.15;100766.61;102777;275;120034;-57
2023/08/14 01:13:00;;;;;;;4.80;4.20;;;;;;;17.57;83.28;100772.50;102818;275;104852;-53
2023/08/14 01:15:44;;;;;;;5.20;4.50;;;;;;;17.61;83.33;100773.34;102812;275;115352;-53
2023/08/14 01:18:27;;;;;;;6.50;5.20;;;;;;;17.64;83.41;100771.71;102953;275;95946;-58
2023/08/14 01:21:37;;;;;;;9.70;6.00;;;;;;;17.68;83.37;100771.16;103020;275;96525;-54
2023/08/14 01:24:27;;;;;;;5.70;5.10;;;;;;;17.85;83.93;100778.44;102827;275;120692;-52
2023/08/14 01:27:04;;;;;;;6.50;5.90;;;;;;;17.98;84.03;100780.04;102903;275;105478;-57
2023/08/14 01:29:43;;;;;;;7.70;5.60;;;;;;;18.10;84.09;100779.42;102931;275;114749;-58
2023/08/14 01:32:19;;;;;;;6.70;5.80;;;;;;;18.17;84.31;100779.70;102997;275;95849;-58
2023/08/14 01:35:00;;;;;;;6.00;5.50;;;;;;;18.23;83.96;100780.35;102968;275;98044;-57
2023/08/14 01:37:44;;;;;;;6.40;5.80;;;;;;;18.30;83.95;100784.47;102823;275;121081;-56
2023/08/14 01:40:35;;;;;;;7.80;5.80;;;;;;;18.41;84.16;100791.61;102774;276;105482;-57
2023/08/14 01:43:23;;;;;;;7.20;5.90;;;;;;;18.46;84.36;100788.81;102758;276;114121;-56
2023/08/14 01:45:59;;;;;;;6.90;5.80;;;;;;;18.52;84.33;100792.38;102783;276;96370;-56
2023/08/14 01:48:42;;;;;;;6.80;6.10;;;;;;;18.54;84.39;100789.48;102763;276;98303;-56
2023/08/14 01:51:22;;;;;;;7.50;5.70;;;;;;;18.59;84.57;100779.52;102789;276;120432;-57
2023/08/14 01:54:00;;;;;;;6.90;5.90;;;;;;;18.67;84.49;100785.64;102911;276;104646;-58
2023/08/14 01:56:39;;;;;;;8.50;5.80;;;;;;;18.66;84.36;100783.91;102876;276;113723;-53
2023/08/14 01:59:19;;;;;;;6.40;5.60;;;;;;;18.64;84.06;100792.46;102769;276;97219;-55
2023/08/14 02:01:58;;;;;;;5.80;5.30;;;;;;;18.62;84.06;100801.11;102813;268;97744;-56
2023/08/14 02:04:36;;;;;;;5.80;5.30;;;;;;;18.59;83.83;100800.36;102814;276;120826;-56
2023/08/14 02:07:16;;;;;;;7.70;5.30;;;;;;;18.57;83.62;100799.65;102773;276;104509;-53
2023/08/14 02:09:58;;;;;;;7.10;5.60;;;;;;;18.55;83.62;100799.48;102770;276;115220;-53
2023/08/14 02:12:36;;;;;;;6.50;5.80;;;;;;;18.50;83.66;100798.09;102792;276;96373;-55
2023/08/14 02:15:14;;;;;;;6.40;5.60;;;;;;;18.41;83.68;100799.61;102789;276;98157;-56
2023/08/14 02:17:51;;;;;;;6.20;5.60;;;;;;;18.40;83.69;100802.27;102880;276;120310;-57
2023/08/14 02:20:27;;;;;;;8.10;6.40;;;;;;;18.39;83.82;100797.46;102864;276;105423;-58
2023/08/14 02:23:04;;;;;;;6.60;6.00;;;;;;;18.40;84.05;100790.54;102817;276;114523;-55
2023/08/14 02:25:43;;;;;;;7.80;6.50;;;;;;;18.45;84.20;100793.54;102785;276;96627;-55
2023/08/14 02:28:26;;;;;;;7.00;6.30;;;;;;;18.46;84.27;100791.34;102802;276;98277;-56
2023/08/14 02:31:05;;;;;;;10.20;7.40;;;;;;;18.53;84.51;100786.45;102825;276;120785;-56
2023/08/14 02:33:41;;;;;;;8.20;7.40;;;;;;;18.61;84.55;100785.10;102792;276;104938;-54
2023/08/14 02:36:17;;;;;;;10.10;9.10;;;;;;;18.67;84.66;100785.14;102840;276;114707;-57
2023/08/14 02:38:55;;;;;;;11.60;9.10;;;;;;;18.71;85.10;100787.35;102808;277;96775;-58
2023/08/14 02:41:34;;;;;;;13.10;9.80;;;;;;;18.75;84.88;100788.09;102870;277;97707;-58
2023/08/14 02:44:13;;;;;;;10.60;8.30;;;;;;;18.75;84.76;100787.96;102829;277;120437;-57
2023/08/14 02:46:52;;;;;;;12.60;9.50;;;;;;;18.77;84.77;100789.02;102792;277;104898;-53
2023/08/14 02:49:28;;;;;;;12.90;10.20;;;;;;;18.77;84.86;100790.88;102715;277;113978;-54
2023/08/14 02:52:05;;;;;;;13.40;10.20;;;;;;;18.81;84.96;100790.27;102695;277;96980;-54
2023/08/14 02:54:51;;;;;;;10.40;7.90;;;;;;;18.81;84.91;100785.27;102773;277;97555;-54
2023/08/14 02:57:30;;;;;;;9.20;7.50;;;;;;;18.83;85.24;100786.25;102702;277;119241;-56
2023/08/14 03:00:10;;;;;;;8.10;7.30;;;;;;;18.83;85.50;100788.30;102670;277;105829;-56
2023/08/14 03:02:47;;;;;;;9.60;7.10;;;;;;;18.83;85.27;100788.77;102734;277;115607;-56
2023/08/14 03:05:23;;;;;;;8.70;7.00;;;;;;;18.84;85.21;100787.95;102670;277;97291;-56
2023/08/14 03:08:04;;;;;;;10.10;7.30;;;;;;;18.85;85.26;100790.93;102752;277;96805;-55
2023/08/14 03:10:43;;;;;;;8.40;7.10;;;;;;;18.84;85.21;100788.73;102677;277;120365;-55
2023/08/14 03:13:20;;;;;;;11.70;7.90;;;;;;;18.84;85.22;100789.00;102403;277;471844;-55
2023/08/14 03:16:01;;;;;;;26.10;16.00;;;;;;;18.84;85.10;100790.82;102580;277;114879;-56
2023/08/14 03:18:37;;;;;;;20.60;14.10;;;;;;;18.85;85.19;100783.71;102693;277;97011;-56
2023/08/14 03:21:16;;;;;;;18.50;13.60;;;;;;;18.84;85.19;100786.10;102741;277;97609;-57
2023/08/14 03:23:57;;;;;;;17.10;12.50;;;;;;;18.84;85.26;100790.14;102817;277;120153;-58
2023/08/14 03:26:32;;;;;;;15.20;11.00;;;;;;;18.83;85.28;100794.45;102817;277;105976;-54
2023/08/14 03:29:08;;;;;;;17.10;12.60;;;;;;;18.88;85.31;100795.23;102679;277;114601;-52
2023/08/14 03:31:52;;;;;;;20.30;14.00;;;;;;;18.90;85.23;100791.02;102777;277;96271;-56
2023/08/14 03:34:34;;;;;;;22.00;17.40;;;;;;;18.91;85.31;100790.87;102851;277;97637;-58
2023/08/14 03:37:13;;;;;;;21.40;16.00;;;;;;;18.95;85.54;100791.52;102796;276;120259;-56
2023/08/14 03:39:53;;;;;;;17.10;14.30;;;;;;;18.98;85.48;100791.23;102741;276;105039;-56
2023/08/14 03:42:31;;;;;;;15.60;13.60;;;;;;;18.99;85.52;100787.96;102762;276;115091;-53
2023/08/14 03:45:10;;;;;;;12.90;10.90;;;;;;;18.96;85.66;100788.77;102763;276;97220;-53
2023/08/14 03:47:47;;;;;;;12.10;10.80;;;;;;;18.95;85.69;100787.82;102775;276;97727;-56
2023/08/14 03:50:23;;;;;;;11.50;9.40;;;;;;;18.96;85.63;100786.58;102728;276;119563;-56
2023/08/14 03:53:11;;;;;;;11.60;9.60;;;;;;;18.99;85.70;100786.50;102729;276;103883;-56
2023/08/14 03:55:57;;;;;;;13.20;9.60;;;;;;;19.00;85.39;100781.93;102726;276;114278;-56
2023/08/14 03:58:36;;;;;;;13.60;11.00;;;;;;;18.99;85.73;100779.92;102693;276;97407;-54
2023/08/14 04:01:20;;;;;;;14.00;11.50;;;;;;;19.02;85.78;100780.48;102797;276;96720;-55
2023/08/14 04:03:57;;;;;;;12.50;10.50;;;;;;;19.04;85.81;100781.06;102717;276;119615;-55
2023/08/14 04:06:35;;;;;;;12.50;10.20;;;;;;;19.04;85.91;100785.79;102847;276;105836;-58
2023/08/14 04:09:20;;;;;;;13.10;9.80;;;;;;;19.03;86.06;100783.31;102893;276;113165;-58
2023/08/14 04:11:57;;;;;;;11.80;9.40;;;;;;;19.06;85.90;100781.42;102874;276;95553;-54
2023/08/14 04:14:36;;;;;;;11.90;8.90;;;;;;;19.06;85.86;100784.27;102811;276;97110;-54
2023/08/14 04:17:14;;;;;;;10.90;9.50;;;;;;;19.07;85.79;100785.05;102834;276;120969;-56
2023/08/14 04:20:01;;;;;;;10.60;8.50;;;;;;;19.10;86.16;100786.17;102761;276;106065;-56
2023/08/14 04:22:39;;;;;;;8.80;7.90;;;;;;;19.14;86.20;100789.33;102931;276;114253;-57
2023/08/14 04:25:28;;;;;;;9.40;8.50;;;;;;;19.22;86.04;100796.49;102874;276;97238;-58
2023/08/14 04:28:08;;;;;;;12.70;9.70;;;;;;;19.42;85.79;100798.91;102823;276;97490;-56
2023/08/14 04:30:43;;;;;;;9.10;8.20;;;;;;;19.56;85.68;100800.09;102737;276;121398;-56
2023/08/14 04:33:22;;;;;;;12.10;8.50;;;;;;;19.70;85.64;100805.95;102786;276;104331;-56
2023/08/14 04:36:02;;;;;;;9.50;8.50;;;;;;;19.84;85.36;100805.52;102769;276;112276;-55
2023/08/14 04:38:39;;;;;;;10.60;8.10;;;;;;;19.99;85.13;100808.27;102800;276;96479;-53
2023/08/14 04:41:18;;;;;;;12.00;8.80;;;;;;;20.15;84.85;100810.91;102794;276;98547;-56
2023/08/14 04:43:54;;;;;;;8.90;8.10;;;;;;;20.19;84.78;100808.59;102793;276;120672;-55
2023/08/14 04:46:37;;;;;;;10.50;8.90;;;;;;;20.27;84.43;100806.71;102815;275;105694;-55
2023/08/14 04:49:19;;;;;;;9.00;8.20;;;;;;;20.38;84.49;100809.36;102752;276;114162;-56
2023/08/14 04:51:57;;;;;;;9.10;8.20;;;;;;;20.87;84.27;100810.19;102769;276;95838;-53
2023/08/14 04:54:35;;;;;;;10.20;7.70;;;;;;;22.19;83.55;100810.89;102759;276;97279;-53
2023/08/14 04:57:22;;;;;;;9.50;8.30;;;;;;;23.68;81.54;100814.03;102758;276;121318;-56
2023/08/14 05:00:02;;;;;;;8.40;7.60;;;;;;;25.13;79.05;100816.77;102773;276;104784;-56
2023/08/14 05:02:40;;;;;;;8.50;7.40;;;;;;;25.86;76.80;100820.77;102850;276;113660;-58
2023/08/14 05:05:20;;;;;;;10.70;8.10;;;;;;;25.68;74.93;100825.89;102843;276;94350;-57
2023/08/14 05:08:00;;;;;;;13.60;9.10;;;;;;;25.25;73.86;100831.08;102843;276;98270;-55
2023/08/14 05:10:42;;;;;;;10.90;7.90;;;;;;;24.75;73.37;100834.01;102802;276;119912;-55
2023/08/14 05:13:20;;;;;;;11.30;7.80;;;;;;;24.24;73.37;100833.52;102841;276;106028;-53
2023/08/14 05:16:10;;;;;;;8.80;7.90;;;;;;;23.99;73.32;100830.76;102763;276;115338;-54
2023/08/14 05:18:51;;;;;;;9.70;8.30;;;;;;;23.73;73.47;100833.08;102776;276;94538;-55
2023/08/14 05:21:29;;;;;;;12.90;8.50;;;;;;;23.48;73.68;100832.51;102823;276;98079;-55
2023/08/14 05:24:04;;;;;;;8.80;7.90;;;;;;;23.39;73.88;100836.61;102734;276;120695;-55
2023/08/14 05:26:39;;;;;;;8.70;7.80;;;;;;;23.45;73.91;100828.61;102802;276;104871;-53
2023/08/14 05:29:16;;;;;;;11.30;8.60;;;;;;;23.61;73.82;100829.35;102778;276;114956;-54
2023/08/14 05:31:51;;;;;;;9.50;7.60;;;;;;;24.23;73.24;100823.73;102741;276;95018;-56
2023/08/14 05:34:30;;;;;;;9.30;7.80;;;;;;;24.65;72.44;100823.70;102778;276;98026;-56
2023/08/14 05:37:13;;;;;;;9.50;8.60;;;;;;;25.03;71.86;100825.61;102847;276;120930;-55
2023/08/14 05:39:51;;;;;;;8.80;7.90;;;;;;;26.22;70.44;100826.32;102758;276;104601;-53
2023/08/14 05:42:28;;;;;;;10.20;8.00;;;;;;;27.68;68.65;100828.01;102757;276;114732;-56
2023/08/14 05:45:06;;;;;;;10.20;8.10;;;;;;;29.08;66.44;100835.23;102719;276;92845;-56
2023/08/14 05:47:44;;;;;;;8.50;7.50;;;;;;;30.23;64.48;100829.59;102943;276;97948;-59
2023/08/14 05:50:25;;;;;;;7.90;7.20;;;;;;;30.87;61.66;100829.13;102847;276;119572;-59
2023/08/14 05:53:07;;;;;;;9.80;7.60;;;;;;;31.21;59.93;100828.24;102870;276;106225;-57
2023/08/14 05:55:45;;;;;;;8.70;6.40;;;;;;;31.78;58.69;100828.70;102818;276;115216;-55
2023/08/14 05:58:21;;;;;;;7.70;6.80;;;;;;;32.52;57.15;100833.36;102895;276;93570;-58
2023/08/14 06:01:02;;;;;;;9.50;8.50;;;;;;;32.96;55.80;100836.58;102942;276;97143;-56
2023/08/14 06:03:41;;;;;;;13.40;8.20;;;;;;;33.73;54.26;100833.27;102819;276;119570;-53
2023/08/14 06:06:21;;;;;;;9.30;7.70;;;;;;;34.22;52.43;100828.24;102876;276;105199;-57
2023/08/14 06:08:58;;;;;;;7.20;6.30;;;;;;;34.74;50.72;100827.05;102833;276;115402;-59
2023/08/14 06:11:34;;;;;;;11.00;7.60;;;;;;;34.97;49.57;100828.67;102856;276;94118;-57
2023/08/14 06:14:15;;;;;;;7.40;6.60;;;;;;;35.36;48.24;100830.36;102539;276;98796;-55
2023/08/14 06:16:56;;;;;;;7.70;6.30;;;;;;;35.82;46.98;100832.35;102798;276;121090;-54
2023/08/14 06:19:41;;;;;;;7.40;6.10;;;;;;;35.97;45.84;100828.19;102819;276;103884;-55
2023/08/14 06:22:18;;;;;;;8.30;7.40;;;;;;;36.35;44.71;100827.56;102824;276;114733;-55
2023/08/14 06:25:00;;;;;;;13.30;8.30;;;;;;;36.30;43.89;100826.99;102734;276;95005;-56
2023/08/14 06:27:40;;;;;;;11.00;7.50;;;;;;;36.58;43.34;100834.55;102809;276;97877;-56
2023/08/14 06:30:15;;;;;;;12.00;8.50;;;;;;;36.90;42.42;100835.52;102762;276;119498;-56
2023/08/14 06:32:58;;;;;;;10.80;8.90;;;;;;;37.04;41.82;100836.27;102824;276;106005;-56
2023/08/14 06:35:37;;;;;;;21.50;11.90;;;;;;;36.97;41.24;100836.82;102734;276;114371;-57
2023/08/14 06:38:19;;;;;;;17.60;13.30;;;;;;;36.19;41.01;100836.10;102778;276;94612;-55
2023/08/14 06:40:56;;;;;;;15.00;12.30;;;;;;;35.68;41.30;100836.92;102795;276;97817;-54
2023/08/14 06:43:36;;;;;;;14.30;11.00;;;;;;;36.00;41.26;100843.88;102775;276;121319;-54
2023/08/14 06:46:16;;;;;;;14.10;11.90;;;;;;;36.16;40.47;100842.59;102795;276;105672;-54
2023/08/14 06:48:54;;;;;;;11.70;8.50;;;;;;;36.49;40.06;100844.23;102734;276;114448;-54
2023/08/14 06:51:38;;;;;;;8.90;7.20;;;;;;;36.71;39.22;100845.10;102820;276;93956;-56
2023/08/14 06:54:18;;;;;;;8.50;6.90;;;;;;;36.00;39.46;100844.83;102757;276;98319;-55
2023/08/14 06:56:55;;;;;;;7.20;6.50;;;;;;;34.88;40.05;100844.17;102856;276;121717;-58
2023/08/14 06:59:32;;;;;;;6.90;6.00;;;;;;;33.35;41.35;100844.33;102870;276;105029;-57
2023/08/14 07:02:08;;;;;;;9.50;6.10;;;;;;;32.45;42.68;100844.54;102803;276;114195;-54
2023/08/14 07:04:44;;;;;;;8.30;6.30;;;;;;;31.88;43.57;100839.15;102778;276;94124;-56
2023/08/14 07:07:22;;;;;;;6.90;6.20;;;;;;;31.36;44.38;100841.61;102776;276;98181;-55
2023/08/14 07:09:59;;;;;;;9.60;6.00;;;;;;;30.89;45.13;100842.92;102743;276;121430;-56
2023/08/14 07:12:41;;;;;;;9.40;6.70;;;;;;;30.75;46.06;100845.02;102822;276;105035;-57
2023/08/14 07:15:17;;;;;;;10.40;6.80;;;;;;;30.71;46.21;100839.30;102844;276;115166;-58
2023/08/14 07:17:54;;;;;;;8.30;6.60;;;;;;;30.68;46.52;100838.46;102751;276;94465;-55
2023/08/14 07:20:41;;;;;;;6.90;6.20;;;;;;;31.11;46.65;100834.03;102747;276;96921;-55
2023/08/14 07:23:20;;;;;;;9.10;5.90;;;;;;;32.35;46.18;100837.90;102761;276;121351;-56
2023/08/14 07:26:03;;;;;;;6.20;5.60;;;;;;;33.61;44.77;100841.84;102772;276;105281;-56
2023/08/14 07:28:38;;;;;;;7.90;5.70;;;;;;;34.46;43.38;100837.52;102771;276;113658;-55
2023/08/14 07:31:18;;;;;;;8.70;5.40;;;;;;;35.21;42.41;100843.80;102792;276;95062;-56
2023/08/14 07:34:01;;;;;;;7.50;5.40;;;;;;;36.17;41.69;100846.65;102763;276;97847;-55
2023/08/14 07:36:37;;;;;;;6.50;5.20;;;;;;;37.08;40.60;100845.55;102780;276;121329;-55
2023/08/14 07:39:17;;;;;;;9.20;5.40;;;;;;;37.82;39.32;100849.50;102791;276;104775;-56
2023/08/14 07:41:56;;;;;;;6.10;4.90;;;;;;;37.98;38.23;100854.23;102770;276;113311;-57
2023/08/14 07:44:34;;;;;;;6.60;5.20;;;;;;;37.74;37.93;100858.39;102834;276;95257;-58
2023/08/14 07:47:14;;;;;;;5.70;5.00;;;;;;;36.64;38.15;100855.77;102804;276;96808;-53
2023/08/14 07:50:02;;;;;;;5.70;5.10;;;;;;;35.36;38.85;100854.34;102731;276;118526;-54
2023/08/14 07:52:41;;;;;;;6.30;4.50;;;;;;;34.04;39.75;100861.36;102764;276;105131;-53
2023/08/14 07:55:23;;;;;;;6.00;5.10;;;;;;;34.26;41.24;100861.13;102732;276;114585;-53
2023/08/14 07:58:02;;;;;;;6.30;4.90;;;;;;;35.67;40.45;100853.20;102785;264;95251;-55
2023/08/14 08:00:45;;;;;;;8.50;4.80;;;;;;;36.32;39.64;100855.52;102754;264;97570;-55
2023/08/14 08:03:22;;;;;;;6.70;4.70;;;;;;;36.70;38.71;100856.08;102761;276;118809;-52
2023/08/14 08:05:57;;;;;;;5.70;4.40;;;;;;;36.62;38.68;100854.63;102779;276;105165;-55
2023/08/14 08:08:38;;;;;;;5.30;4.50;;;;;;;36.96;38.34;100852.49;102713;276;114788;-55
2023/08/14 08:11:19;;;;;;;5.90;5.00;;;;;;;36.05;38.15;100852.49;102766;276;94235;-57
2023/08/14 08:14:05;;;;;;;5.90;4.50;;;;;;;35.37;38.82;100861.55;102874;276;97144;-58
2023/08/14 08:16:47;;;;;;;5.90;4.60;;;;;;;34.98;39.44;100861.63;102874;276;120336;-56
2023/08/14 08:19:27;;;;;;;5.20;4.00;;;;;;;34.74;39.31;100862.07;102768;276;106417;-55
2023/08/14 08:22:08;;;;;;;6.20;4.00;;;;;;;35.44;40.13;100863.00;102845;276;114964;-56
2023/08/14 08:24:48;;;;;;;4.10;3.70;;;;;;;36.91;38.70;100860.47;102773;276;93324;-55
2023/08/14 08:27:26;;;;;;;5.20;4.30;;;;;;;37.61;38.11;100863.40;102826;276;97018;-62
2023/08/14 08:30:07;;;;;;;4.80;3.40;;;;;;;38.34;36.65;100858.10;102777;272;120954;-62
2023/08/14 08:32:44;;;;;;;3.80;3.20;;;;;;;38.78;35.84;100855.02;102821;276;105641;-55
2023/08/14 08:35:25;;;;;;;7.50;3.40;;;;;;;39.08;35.08;100858.87;102773;276;115170;-55
2023/08/14 08:38:04;;;;;;;4.00;2.90;;;;;;;39.26;34.37;100858.80;102886;276;94906;-57
2023/08/14 08:40:48;;;;;;;3.50;3.10;;;;;;;39.36;33.98;100857.31;102950;276;96811;-58
2023/08/14 08:43:25;;;;;;;3.50;2.90;;;;;;;39.72;33.79;100851.20;102984;276;121238;-57
2023/08/14 08:46:09;;;;;;;4.20;3.30;;;;;;;40.06;33.09;100851.86;102895;276;105757;-57
2023/08/14 08:48:55;;;;;;;4.80;3.50;;;;;;;39.23;32.68;100859.10;102900;276;113599;-58
2023/08/14 08:51:41;;;;;;;5.30;3.20;;;;;;;39.09;33.62;100857.75;102940;276;94058;-56
2023/08/14 08:54:22;;;;;;;6.00;3.30;;;;;;;39.54;33.07;100860.04;102738;276;97226;-55
2023/08/14 08:57:01;;;;;;;3.70;3.40;;;;;;;39.24;32.97;100856.39;102792;276;121183;-53
2023/08/14 08:59:37;;;;;;;4.60;4.20;;;;;;;39.10;33.01;100856.64;102770;276;106052;-54
2023/08/14 09:02:14;;;;;;;10.00;3.40;;;;;;;39.34;33.22;100847.65;102766;276;112046;-52
2023/08/14 09:04:51;;;;;;;3.80;3.40;;;;;;;39.69;32.60;100848.41;102766;276;94280;-53
2023/08/14 09:07:28;;;;;;;5.10;3.20;;;;;;;39.57;32.18;100847.09;102753;276;98660;-53
2023/08/14 09:10:11;;;;;;;3.40;3.00;;;;;;;38.70;32.56;100852.07;102745;276;120854;-53
2023/08/14 09:12:55;;;;;;;2.90;2.60;;;;;;;37.86;33.56;100847.52;102754;276;106344;-55
2023/08/14 09:15:42;;;;;;;4.90;3.40;;;;;;;37.86;33.92;100843.73;102750;276;112789;-55
2023/08/14 09:18:19;;;;;;;4.60;3.20;;;;;;;37.55;34.02;100836.35;102729;276;95096;-53
2023/08/14 09:20:59;;;;;;;3.60;3.20;;;;;;;37.31;34.09;100830.00;102749;276;97863;-53
2023/08/14 09:23:40;;;;;;;4.60;3.00;;;;;;;36.62;34.88;100830.31;102778;276;121705;-57
2023/08/14 09:26:21;;;;;;;4.00;3.50;;;;;;;36.33;35.59;100831.30;102794;276;106151;-53
2023/08/14 09:28:58;;;;;;;3.70;3.20;;;;;;;36.07;36.03;100833.20;102795;276;114602;-54
2023/08/14 09:31:36;;;;;;;5.10;3.30;;;;;;;35.86;36.22;100825.30;102839;276;95075;-54
2023/08/14 09:34:18;;;;;;;3.20;3.00;;;;;;;35.26;36.48;100828.92;102802;276;96702;-53
2023/08/14 09:36:53;;;;;;;6.20;4.50;;;;;;;34.61;37.02;100829.63;102862;276;120340;-55
2023/08/14 09:39:28;;;;;;;4.70;3.70;;;;;;;34.06;37.28;100825.86;102846;276;106625;-55
2023/08/14 09:42:05;;;;;;;4.10;3.70;;;;;;;33.45;38.27;100827.92;102878;276;114912;-57
2023/08/14 09:44:43;;;;;;;6.60;3.70;;;;;;;32.98;39.09;100825.16;102912;276;94706;-58
2023/08/14 09:47:24;;;;;;;4.80;3.90;;;;;;;32.73;39.91;100824.05;102892;276;97663;-53
2023/08/14 09:50:01;;;;;;;4.40;3.90;;;;;;;32.58;40.39;100816.70;102815;276;120098;-54
2023/08/14 09:52:43;;;;;;;5.50;3.80;;;;;;;32.61;41.08;100819.63;102816;276;105478;-55
2023/08/14 09:55:26;;;;;;;4.50;3.80;;;;;;;32.80;40.94;100816.13;102787;276;114363;-56
2023/08/14 09:58:03;;;;;;;4.40;4.00;;;;;;;32.82;41.20;100817.29;102770;276;95070;-54
2023/08/14 10:00:41;;;;;;;4.90;4.40;;;;;;;32.80;41.36;100812.70;102815;276;97236;-53
2023/08/14 10:03:21;;;;;;;6.00;4.80;;;;;;;32.68;41.52;100812.46;102868;276;121204;-55
2023/08/14 10:06:03;;;;;;;4.70;4.20;;;;;;;32.60;41.79;100810.14;102829;276;106256;-55
2023/08/14 10:08:44;;;;;;;5.50;4.60;;;;;;;32.51;42.06;100811.73;102767;276;114725;-55
2023/08/14 10:11:21;;;;;;;5.30;4.60;;;;;;;32.51;42.28;100813.22;102781;276;94797;-54
2023/08/14 10:14:02;;;;;;;5.50;4.30;;;;;;;32.49;42.52;100814.07;102826;276;97286;-54
2023/08/14 10:16:41;;;;;;;4.60;3.90;;;;;;;32.37;42.57;100811.24;102836;276;120604;-54
2023/08/14 10:19:25;;;;;;;4.70;4.30;;;;;;;32.31;42.92;100814.45;102830;276;105749;-54
2023/08/14 10:22:06;;;;;;;4.70;4.30;;;;;;;32.33;42.93;100813.39;102898;276;114065;-58
2023/08/14 10:24:44;;;;;;;5.30;4.80;;;;;;;32.25;43.26;100817.57;102987;276;94927;-58
2023/08/14 10:27:25;;;;;;;4.60;4.20;;;;;;;32.25;43.83;100813.63;102874;276;97681;-56
2023/08/14 10:30:04;;;;;;;5.00;4.30;;;;;;;32.31;43.75;100815.45;102816;276;118042;-56
2023/08/14 10:32:46;;;;;;;6.70;4.70;;;;;;;32.35;43.87;100811.36;102836;276;104946;-54
2023/08/14 10:35:25;;;;;;;7.50;4.40;;;;;;;32.37;44.11;100811.77;102758;276;114560;-53
2023/08/14 10:38:01;;;;;;;6.90;4.80;;;;;;;32.43;44.16;100813.90;102854;276;95575;-55
2023/08/14 10:40:38;;;;;;;4.50;4.10;;;;;;;32.46;44.22;100808.73;102785;276;98451;-55
2023/08/14 10:43:20;;;;;;;5.60;4.00;;;;;;;32.33;44.19;100806.31;102936;276;119671;-58
2023/08/14 10:46:10;;;;;;;6.30;5.00;;;;;;;32.46;44.41;100814.29;102913;276;106427;-57
2023/08/14 10:48:52;;;;;;;7.80;5.30;;;;;;;32.46;44.10;100815.17;102776;276;114924;-55
2023/08/14 10:51:35;;;;;;;6.20;4.90;;;;;;;32.35;44.18;100807.34;102711;276;93506;-55
2023/08/14 10:54:16;;;;;;;5.50;4.60;;;;;;;32.36;44.08;100801.90;102793;276;98270;-55
2023/08/14 10:57:01;;;;;;;5.60;3.80;;;;;;;32.37;43.97;100802.08;102841;276;121376;-58
2023/08/14 10:59:57;;;;;;;4.50;3.90;;;;;;;32.32;43.49;100803.32;103024;276;105693;-58
2023/08/14 11:02:42;;;;;;;4.00;3.50;;;;;;;32.29;43.24;100799.86;102863;276;113304;-56
2023/08/14 11:05:23;;;;;;;4.50;3.90;;;;;;;32.26;43.48;100796.04;102757;276;93557;-56
2023/08/14 11:08:06;;;;;;;6.10;4.10;;;;;;;32.36;43.31;100796.29;102798;276;96778;-53
2023/08/14 11:10:49;;;;;;;4.60;3.20;;;;;;;32.44;43.15;100797.56;102764;276;120951;-54
2023/08/14 11:13:28;;;;;;;3.90;3.50;;;;;;;32.40;43.04;100796.77;102459;276;504137;-56
2023/08/14 11:16:05;;;;;;;3.50;3.20;;;;;;;32.39;43.06;100798.90;102795;276;115163;-54
2023/08/14 11:18:41;;;;;;;3.50;3.20;;;;;;;32.35;42.86;100793.13;102753;276;94890;-53
2023/08/14 11:21:19;;;;;;;4.50;3.90;;;;;;;32.37;43.25;100788.30;102806;276;99358;-55
2023/08/14 11:23:56;;;;;;;4.80;3.40;;;;;;;32.47;43.35;100786.61;102795;276;120603;-55
2023/08/14 11:26:39;;;;;;;5.10;3.90;;;;;;;32.53;43.22;100779.89;102841;276;103730;-58
2023/08/14 11:29:14;;;;;;;;;;;;;;;32.56;43.20;100783.23;102882;276;115075;-57
2023/08/14 11:31:54;;;;;;;4.40;3.50;;;;;;;32.54;43.27;100777.36;102853;276;93235;-55
2023/08/14 11:34:34;;;;;;;4.50;3.20;;;;;;;32.68;43.42;100780.86;102753;276;98199;-55
2023/08/14 11:37:09;;;;;;;4.20;3.30;;;;;;;32.66;42.76;100779.83;102796;276;120841;-56
2023/08/14 11:39:52;;;;;;;4.30;3.40;;;;;;;32.42;42.93;100780.38;102809;276;103095;-55
2023/08/14 11:42:36;;;;;;;4.10;3.70;;;;;;;32.54;43.33;100780.42;102746;276;115032;-55
2023/08/14 11:45:17;;;;;;;4.20;3.80;;;;;;;32.75;43.50;100780.86;102753;276;94844;-55
2023/08/14 11:47:56;;;;;;;4.80;3.60;;;;;;;32.78;43.22;100784.61;102767;276;98541;-55
2023/08/14 11:50:33;;;;;;;5.70;3.20;;;;;;;32.80;43.26;100783.33;102740;276;119891;-55
2023/08/14 11:53:22;;;;;;;4.00;3.40;;;;;;;32.76;43.27;100778.13;102759;276;105967;-55
2023/08/14 11:56:03;;;;;;;4.00;3.60;;;;;;;32.82;43.60;100780.47;102724;276;114658;-56
2023/08/14 11:58:43;;;;;;;4.60;3.30;;;;;;;32.66;43.49;100779.34;102740;276;94306;-54
2023/08/14 12:01:18;;;;;;;3.30;3.00;;;;;;;32.59;43.42;100773.11;102762;276;96873;-58
2023/08/14 12:04:02;;;;;;;4.60;3.00;;;;;;;32.73;43.90;100769.10;102840;276;121520;-59
2023/08/14 12:06:40;;;;;;;4.40;3.80;;;;;;;32.81;43.58;100773.77;102949;276;105786;-57
2023/08/14 12:09:19;;;;;;;3.90;3.50;;;;;;;32.60;43.36;100770.29;102874;276;114162;-57
2023/08/14 12:11:55;;;;;;;5.00;3.40;;;;;;;32.44;43.67;100771.27;102843;276;94649;-52
2023/08/14 12:14:41;;;;;;;6.60;4.10;;;;;;;32.49;43.96;100765.62;102790;276;97828;-54
2023/08/14 12:17:18;;;;;;;4.30;3.40;;;;;;;32.53;43.78;100764.73;102838;276;121149;-55